createdAt,value
2019-05-25T00:03:08.286Z,569
2019-05-25T00:08:19.565Z,576
2019-05-25T00:13:31.128Z,580
2019-05-25T00:18:42.126Z,586
2019-05-25T00:23:53.125Z,595
2019-05-25T00:29:04.703Z,591
2019-05-25T00:34:16.256Z,577
2019-05-25T00:39:27.823Z,575
2019-05-25T00:44:39.101Z,568
2019-05-25T00:49:50.381Z,561
2019-05-25T00:55:01.387Z,564
2019-05-25T01:00:12.384Z,553
2019-05-25T01:05:23.948Z,545
2019-05-25T01:10:34.671Z,535
2019-05-25T01:15:46.228Z,546
2019-05-25T01:20:59.257Z,545
2019-05-25T01:26:10.256Z,549
2019-05-25T01:31:21.256Z,569
2019-05-25T01:36:32.818Z,557
2019-05-25T01:41:43.539Z,552
2019-05-25T01:46:54.541Z,562
2019-05-25T01:52:05.560Z,572
2019-05-25T01:57:16.329Z,583
2019-05-25T02:02:28.282Z,577
2019-05-25T02:07:39.880Z,563
2019-05-25T02:13:00.402Z,550
2019-05-25T02:18:12.235Z,560
2019-05-25T02:23:23.795Z,579
2019-05-25T02:28:35.347Z,580
2019-05-25T02:33:46.629Z,579
2019-05-25T02:45:18.235Z,579
2019-05-25T02:50:29.838Z,589
2019-05-25T02:55:41.365Z,603
2019-05-25T03:00:52.638Z,606
2019-05-25T03:06:07.258Z,606
2019-05-25T03:11:19.196Z,630
2019-05-25T03:16:30.470Z,637
2019-05-25T03:21:41.494Z,647
2019-05-25T03:26:52.472Z,667
2019-05-25T03:32:03.194Z,677
2019-05-25T03:37:14.473Z,680
2019-05-25T03:42:25.193Z,700
2019-05-25T03:47:36.480Z,711
2019-05-25T04:03:23.129Z,733
2019-05-25T04:08:33.817Z,739
2019-05-25T04:13:45.384Z,740
2019-05-25T04:18:56.363Z,744
2019-05-25T04:24:07.928Z,774
2019-05-25T04:29:18.647Z,813
2019-05-25T04:34:29.475Z,815
2019-05-25T04:39:40.699Z,795
2019-05-25T04:44:51.437Z,790
2019-05-25T04:50:02.416Z,786
2019-05-25T04:55:13.437Z,780
2019-05-25T05:00:24.433Z,784
2019-05-25T05:05:35.733Z,787
2019-05-25T05:10:46.735Z,781
2019-05-25T05:15:58.013Z,767
2019-05-25T05:21:09.006Z,781
2019-05-25T05:26:20.076Z,764
2019-05-25T05:31:31.316Z,727
2019-05-25T05:36:42.872Z,699
2019-05-25T05:41:54.142Z,681
2019-05-25T05:47:04.864Z,656
2019-05-25T05:52:16.662Z,636
2019-05-25T05:57:31.178Z,603
2019-05-25T06:02:42.124Z,648
2019-05-25T06:07:53.406Z,670
2019-05-25T06:13:04.214Z,690
2019-05-25T06:18:15.639Z,700
2019-05-25T06:23:26.925Z,702
2019-05-25T06:28:37.651Z,701
2019-05-25T06:33:48.366Z,687
2019-05-25T06:38:59.654Z,661
2019-05-25T06:44:10.687Z,589
2019-05-25T06:49:21.363Z,581
2019-05-25T06:54:32.365Z,545
2019-05-25T06:59:43.368Z,521
2019-05-25T07:04:54.381Z,509
2019-05-25T07:10:05.079Z,498
2019-05-25T07:15:16.073Z,496
2019-05-25T07:25:55.421Z,507
2019-05-25T07:38:09.917Z,571
2019-05-25T07:43:24.864Z,537
2019-05-25T07:53:56.362Z,493
2019-05-25T07:59:07.633Z,494
2019-05-25T08:04:20.855Z,498
2019-05-25T08:09:32.777Z,506
2019-05-25T08:14:45.169Z,481
2019-05-25T08:19:56.487Z,479
2019-05-25T08:25:07.843Z,462
2019-05-25T08:30:22.279Z,429
2019-05-25T08:35:33.546Z,407
2019-05-25T08:40:45.092Z,397
2019-05-25T08:45:56.650Z,412
2019-05-25T08:51:07.644Z,425
2019-05-25T08:56:19.534Z,445
2019-05-25T09:01:30.683Z,471
2019-05-25T09:06:41.962Z,493
2019-05-25T09:11:53.516Z,501
2019-05-25T09:17:04.265Z,690
2019-05-25T09:22:15.815Z,579
2019-05-25T09:27:26.837Z,557
2019-05-25T09:32:37.846Z,557
2019-05-25T09:37:49.385Z,569
2019-05-25T09:43:00.382Z,573
2019-05-25T09:48:11.098Z,587
2019-05-25T09:53:22.603Z,602
2019-05-25T09:58:34.204Z,620
2019-05-25T10:03:45.207Z,649
2019-05-25T10:08:56.488Z,686
2019-05-25T10:14:07.775Z,723
2019-05-25T10:19:19.328Z,739
2019-05-25T10:24:30.369Z,743
2019-05-25T10:29:42.587Z,738
2019-05-25T10:34:54.148Z,726
2019-05-25T10:40:05.154Z,716
2019-05-25T10:45:16.432Z,704
2019-05-25T10:50:27.714Z,688
2019-05-25T10:55:39.282Z,680
2019-05-25T11:00:50.272Z,664
2019-05-25T11:06:04.119Z,657
2019-05-25T11:11:15.412Z,655
2019-05-25T11:16:26.408Z,650
2019-05-25T11:21:37.403Z,642
2019-05-25T11:26:48.405Z,633
2019-05-25T11:32:03.625Z,633
2019-05-25T11:37:18.368Z,631
2019-05-25T11:42:29.362Z,622
2019-05-25T11:47:40.647Z,609
2019-05-25T11:52:52.041Z,602
2019-05-25T11:58:06.633Z,599
2019-05-25T12:03:17.640Z,592
2019-05-25T12:08:31.674Z,591
2019-05-25T12:13:42.944Z,585
2019-05-25T12:18:53.952Z,592
2019-05-25T12:24:04.966Z,593
2019-05-25T12:29:15.686Z,599
2019-05-25T12:34:26.682Z,595
2019-05-25T12:39:38.242Z,593
2019-05-25T12:44:48.970Z,593
2019-05-25T12:49:59.975Z,587
2019-05-25T12:55:13.841Z,589
2019-05-25T13:00:24.847Z,581
2019-05-25T13:05:36.127Z,575
2019-05-25T13:10:46.846Z,580
2019-05-25T13:15:57.855Z,575
2019-05-25T13:21:08.846Z,572
2019-05-25T13:26:20.410Z,567
2019-05-25T13:31:31.125Z,564
2019-05-25T13:36:42.414Z,558
2019-05-25T13:41:53.411Z,556
2019-05-25T13:47:04.687Z,550
2019-05-25T13:52:15.975Z,546
2019-05-25T13:57:27.252Z,544
2019-05-25T14:02:38.527Z,548
2019-05-25T14:07:49.243Z,545
2019-05-25T14:13:00.245Z,545
2019-05-25T14:18:11.244Z,544
2019-05-25T14:23:22.521Z,541
2019-05-25T14:28:33.522Z,541
2019-05-25T14:33:44.801Z,546
2019-05-25T14:38:56.076Z,539
2019-05-25T14:44:07.635Z,533
2019-05-25T14:49:18.914Z,534
2019-05-25T14:54:30.266Z,534
2019-05-25T14:59:41.822Z,536
2019-05-25T15:04:52.544Z,542
2019-05-25T15:10:03.291Z,536
2019-05-25T15:15:14.572Z,543
2019-05-25T15:20:25.862Z,545
2019-05-25T15:25:37.140Z,541
2019-05-25T15:30:48.426Z,528
2019-05-25T15:35:59.701Z,519
2019-05-25T15:41:11.262Z,518
2019-05-25T15:46:22.272Z,515
2019-05-25T15:51:33.607Z,517
2019-05-25T15:56:45.371Z,521
2019-05-25T16:01:56.360Z,528
2019-05-25T16:07:07.360Z,531
2019-05-25T16:12:18.636Z,539
2019-05-25T16:17:30.197Z,531
2019-05-25T16:22:41.480Z,521
2019-05-25T16:27:53.091Z,526
2019-05-25T16:33:13.886Z,538
2019-05-25T16:38:26.139Z,507
2019-05-25T16:43:37.413Z,474
2019-05-25T16:48:48.153Z,461
2019-05-25T16:53:59.419Z,455
2019-05-25T16:59:10.141Z,454
2019-05-25T17:04:21.179Z,447
2019-05-25T17:09:32.431Z,448
2019-05-25T17:14:43.429Z,470
2019-05-25T17:19:54.492Z,483
2019-05-25T17:25:05.731Z,501
2019-05-25T17:30:17.287Z,532
2019-05-25T17:57:04.274Z,608
2019-05-25T18:02:16.140Z,609
2019-05-25T18:07:26.962Z,613
2019-05-25T18:12:38.568Z,615
2019-05-25T18:17:49.534Z,621
2019-05-25T18:23:00.252Z,630
2019-05-25T18:28:11.259Z,630
2019-05-25T18:33:22.539Z,637
2019-05-25T18:38:33.530Z,636
2019-05-25T18:43:44.815Z,644
2019-05-25T18:48:55.816Z,648
2019-05-25T18:54:06.531Z,650
2019-05-25T18:59:20.810Z,656
2019-05-25T19:04:44.165Z,662
2019-05-25T19:10:10.869Z,670
2019-05-25T19:15:22.250Z,672
2019-05-25T19:20:32.965Z,683
2019-05-25T19:25:44.255Z,686
2019-05-25T19:30:55.248Z,697
2019-05-25T19:36:06.298Z,699
2019-05-25T19:41:17.245Z,703
2019-05-25T19:46:27.965Z,706
2019-05-25T19:51:39.534Z,711
2019-05-25T19:56:50.453Z,723
2019-05-25T20:02:01.680Z,732
2019-05-25T20:07:12.681Z,753
2019-05-25T20:12:23.406Z,778
2019-05-25T20:17:34.127Z,804
2019-05-25T20:22:45.401Z,843
2019-05-25T20:27:56.680Z,873
2019-05-25T20:33:07.409Z,925
2019-05-25T20:38:18.191Z,957
2019-05-25T20:43:29.425Z,1002
2019-05-25T20:48:40.437Z,1027
2019-05-25T20:53:51.733Z,1058
2019-05-25T20:59:03.328Z,1085
2019-05-25T21:04:14.321Z,1108
2019-05-25T21:09:25.041Z,1133
2019-05-25T21:14:36.329Z,1153
2019-05-25T21:19:47.610Z,1175
2019-05-25T21:25:05.200Z,1192
2019-05-25T21:30:16.841Z,1212
2019-05-25T21:35:28.119Z,1222
2019-05-25T21:40:38.835Z,1246
2019-05-25T21:45:49.844Z,1271
2019-05-25T21:51:01.125Z,1293
2019-05-25T21:56:12.405Z,1310
2019-05-25T22:01:23.409Z,1329
2019-05-25T22:06:34.682Z,1340
2019-05-25T22:11:45.975Z,1351
2019-05-25T22:16:56.973Z,1360
2019-05-25T22:22:08.248Z,1371
2019-05-25T22:27:18.975Z,1378
2019-05-25T22:32:29.701Z,1384
2019-05-25T22:37:40.981Z,1391
2019-05-25T22:42:51.976Z,1401
2019-05-25T22:48:02.739Z,1407
2019-05-25T22:53:14.015Z,1413
2019-05-25T22:58:25.024Z,1424
2019-05-25T23:03:36.289Z,1423
2019-05-25T23:08:47.300Z,1427
2019-05-25T23:13:58.302Z,1431
2019-05-25T23:19:09.304Z,1440
2019-05-25T23:24:20.306Z,1444
2019-05-25T23:29:31.028Z,1444
2019-05-25T23:34:41.759Z,1433
2019-05-25T23:39:52.763Z,1427
2019-05-25T23:45:04.041Z,1435
2019-05-25T23:50:15.038Z,926
2019-05-25T23:55:26.041Z,889
